Time;durP1;ratioP1;P1;durP2;ratioP2;P2;SDS_P1;SDS_P2;PMS_P1;PMS_P2;Temp;Humidity;BMP_temperature;BMP_pressure;BME280_temperature;BME280_humidity;BME280_pressure;Samples;Min_cycle;Max_cycle;Signal;HPM_P1;HPM_P2
2023/09/12 00:01:22;;;;;;;14.90;9.53;;;18.10;99.90;;;;;;5063842;28;20212;-81
2023/09/12 00:03:47;;;;;;;16.23;10.47;;;18.00;99.90;;;;;;5057773;28;20187;-82
2023/09/12 00:06:13;;;;;;;15.77;9.07;;;18.00;99.90;;;;;;5058363;28;20207;-79
2023/09/12 00:08:38;;;;;;;18.83;10.60;;;18.00;99.90;;;;;;5060029;28;20196;-83
2023/09/12 00:11:09;;;;;;;17.97;11.23;;;18.00;99.90;;;;;;5060130;28;20262;-86
2023/09/12 00:13:35;;;;;;;16.03;10.37;;;17.90;99.90;;;;;;5055033;28;20199;-79
2023/09/12 00:16:01;;;;;;;14.27;8.53;;;17.80;99.90;;;;;;5052857;28;20446;-82
2023/09/12 00:18:27;;;;;;;21.47;10.33;;;17.90;99.90;;;;;;5064355;28;20187;-87
2023/09/12 00:20:53;;;;;;;23.43;11.10;;;17.80;99.90;;;;;;5062572;28;20212;-84
2023/09/12 00:23:20;;;;;;;12.70;8.87;;;17.80;99.90;;;;;;5062614;28;20439;-82
2023/09/12 00:25:45;;;;;;;17.77;8.73;;;17.80;99.90;;;;;;5064029;28;20203;-82
2023/09/12 00:28:11;;;;;;;18.90;9.33;;;17.80;99.90;;;;;;5064143;28;20450;-82
2023/09/12 00:30:36;;;;;;;17.90;9.07;;;17.70;99.90;;;;;;5059231;28;20223;-83
2023/09/12 00:33:02;;;;;;;14.87;9.13;;;17.70;99.90;;;;;;5064449;28;20188;-82
2023/09/12 00:35:28;;;;;;;14.27;10.90;;;17.70;99.90;;;;;;5056529;28;20192;-82
2023/09/12 00:37:53;;;;;;;19.73;12.13;;;17.60;99.90;;;;;;5061711;28;20211;-80
2023/09/12 00:40:19;;;;;;;21.67;12.13;;;17.50;99.90;;;;;;5055353;28;20231;-83
2023/09/12 00:42:44;;;;;;;20.70;12.97;;;17.50;99.90;;;;;;5061455;28;20199;-80
2023/09/12 00:45:10;;;;;;;20.70;10.63;;;17.50;99.90;;;;;;5057088;28;20271;-81
2023/09/12 00:47:36;;;;;;;15.30;9.10;;;17.40;99.90;;;;;;5059464;28;20214;-79
2023/09/12 00:50:04;;;;;;;26.30;10.43;;;17.30;99.90;;;;;;5066328;28;20220;-83
2023/09/12 00:52:33;;;;;;;16.90;10.27;;;17.20;99.90;;;;;;5058821;28;20447;-79
2023/09/12 00:54:58;;;;;;;16.83;10.53;;;17.10;99.90;;;;;;5058383;28;20442;-84
2023/09/12 00:57:24;;;;;;;12.80;10.57;;;17.10;99.90;;;;;;5071449;28;20480;-85
2023/09/12 00:59:51;;;;;;;16.40;12.80;;;17.00;99.90;;;;;;5056887;28;20204;-82
2023/09/12 01:02:18;;;;;;;23.47;11.43;;;16.90;99.90;;;;;;5057961;28;20592;-79
2023/09/12 01:04:44;;;;;;;19.83;12.10;;;16.80;99.90;;;;;;5053748;28;20462;-80
2023/09/12 01:07:10;;;;;;;16.77;12.00;;;16.70;99.90;;;;;;5053181;28;20438;-82
2023/09/12 01:09:35;;;;;;;24.70;11.57;;;16.70;99.90;;;;;;5054374;28;20212;-83
2023/09/12 01:12:04;;;;;;;21.73;10.80;;;16.80;99.90;;;;;;5058278;28;20456;-79
2023/09/12 01:14:30;;;;;;;20.93;10.50;;;16.90;99.90;;;;;;5062314;28;20195;-83
2023/09/12 01:16:57;;;;;;;16.10;11.23;;;16.80;99.90;;;;;;5058003;28;22478;-80
2023/09/12 01:19:23;;;;;;;12.60;10.20;;;17.00;99.90;;;;;;5054931;28;20474;-80
2023/09/12 01:22:27;;;;;;;14.17;10.53;;;16.80;99.90;;;;;;5059907;28;20537;-79
2023/09/12 01:25:23;;;;;;;15.43;9.67;;;16.90;99.90;;;;;;5059714;28;20492;-82
2023/09/12 01:27:51;;;;;;;17.20;11.90;;;16.90;99.90;;;;;;5061984;28;20434;-83
2023/09/12 01:30:20;;;;;;;13.93;10.53;;;17.00;99.90;;;;;;5075762;28;20467;-81
2023/09/12 01:32:46;;;;;;;22.30;11.77;;;17.00;99.90;;;;;;5065121;28;20461;-78
2023/09/12 01:35:12;;;;;;;15.37;10.57;;;17.10;99.90;;;;;;5063840;28;21335;-81
2023/09/12 01:37:37;;;;;;;14.50;9.50;;;17.10;99.90;;;;;;5063879;28;20447;-80
2023/09/12 01:40:03;;;;;;;16.87;10.97;;;17.10;99.90;;;;;;5063144;28;20200;-80
2023/09/12 01:42:35;;;;;;;15.70;10.93;;;17.10;99.90;;;;;;5066833;28;20285;-84
2023/09/12 01:45:02;;;;;;;14.33;10.13;;;17.00;99.90;;;;;;5069537;28;20445;-84
2023/09/12 01:47:29;;;;;;;21.97;10.67;;;17.10;99.90;;;;;;5066841;28;20450;-80
2023/09/12 01:49:58;;;;;;;18.97;11.30;;;17.10;99.90;;;;;;5070541;28;20489;-81
2023/09/12 01:52:26;;;;;;;15.80;10.60;;;17.10;99.90;;;;;;5076635;28;20442;-83
2023/09/12 01:54:53;;;;;;;15.93;10.77;;;17.10;99.90;;;;;;5063986;28;20439;-81
2023/09/12 01:57:21;;;;;;;21.40;13.10;;;17.10;99.90;;;;;;5063678;28;22210;-80
2023/09/12 01:59:50;;;;;;;20.37;12.70;;;17.10;99.90;;;;;;5063040;28;20474;-82
2023/09/12 02:02:16;;;;;;;15.30;10.37;;;17.10;99.90;;;;;;5076393;28;20481;-83
2023/09/12 02:04:52;;;;;;;17.77;10.37;;;17.10;99.90;;;;;;5063130;28;20465;-80
2023/09/12 02:07:18;;;;;;;23.40;12.90;;;17.10;99.90;;;;;;5061535;28;20455;-79
2023/09/12 02:09:43;;;;;;;20.63;11.93;;;17.00;99.90;;;;;;5066265;28;20461;-80
2023/09/12 02:12:09;;;;;;;20.00;12.80;;;17.00;99.90;;;;;;5083674;28;20190;-80
2023/09/12 02:14:34;;;;;;;14.70;10.70;;;17.00;99.90;;;;;;5067473;28;20270;-81
2023/09/12 02:17:00;;;;;;;17.70;10.90;;;16.90;99.90;;;;;;5062954;28;20180;-86
2023/09/12 02:19:25;;;;;;;23.50;10.83;;;16.90;99.90;;;;;;5062811;28;20879;-84
2023/09/12 02:21:51;;;;;;;18.63;11.60;;;16.70;99.90;;;;;;5069596;28;20233;-82
2023/09/12 02:24:18;;;;;;;18.03;11.30;;;16.70;99.90;;;;;;5068869;28;20215;-81
2023/09/12 02:26:44;;;;;;;23.13;10.60;;;16.70;99.90;;;;;;5068887;28;20206;-83
2023/09/12 02:29:09;;;;;;;19.10;12.00;;;16.70;99.90;;;;;;5067531;28;21006;-85
2023/09/12 02:31:35;;;;;;;17.43;12.90;;;16.60;99.90;;;;;;5067703;28;20553;-81
2023/09/12 02:34:00;;;;;;;21.57;11.97;;;16.60;99.90;;;;;;5075622;28;20195;-82
2023/09/12 02:36:26;;;;;;;20.10;12.90;;;16.60;99.90;;;;;;5058793;28;20188;-78
2023/09/12 02:38:52;;;;;;;21.13;11.90;;;16.60;99.90;;;;;;5067855;28;20305;-84
2023/09/12 02:41:17;;;;;;;18.03;11.00;;;16.60;99.90;;;;;;5064588;28;20566;-81
2023/09/12 02:43:43;;;;;;;23.50;12.00;;;16.60;99.90;;;;;;5060804;28;20238;-85
2023/09/12 02:46:08;;;;;;;19.47;11.17;;;16.70;99.90;;;;;;5068309;28;20257;-76
2023/09/12 02:48:34;;;;;;;17.10;11.47;;;16.70;99.90;;;;;;5078362;28;20602;-80
2023/09/12 02:50:59;;;;;;;16.70;11.97;;;16.60;99.90;;;;;;5063212;28;20237;-81
2023/09/12 02:53:25;;;;;;;21.87;11.00;;;16.60;99.90;;;;;;5063176;28;20184;-80
2023/09/12 02:55:51;;;;;;;17.00;11.30;;;16.60;99.90;;;;;;5070250;28;20184;-78
2023/09/12 02:58:17;;;;;;;17.57;11.77;;;16.60;99.90;;;;;;5061202;28;20192;-83
2023/09/12 03:00:42;;;;;;;17.87;12.33;;;16.60;99.90;;;;;;5063747;28;20919;-83
2023/09/12 03:03:09;;;;;;;19.43;13.00;;;16.60;99.90;;;;;;5061045;28;20199;-81
2023/09/12 03:05:35;;;;;;;26.47;12.80;;;16.60;99.90;;;;;;5066034;28;20232;-85
2023/09/12 03:08:01;;;;;;;1999.90;999.90;;;16.50;99.90;;;;;;5079040;28;20473;-84
2023/09/12 03:10:27;;;;;;;19.33;13.50;;;16.70;99.90;;;;;;5071913;28;20457;-84
2023/09/12 03:12:52;;;;;;;281.97;35.10;;;16.60;99.90;;;;;;5068700;28;20260;-83
2023/09/12 03:15:18;;;;;;;155.50;28.70;;;16.70;99.90;;;;;;5064974;28;20180;-79
2023/09/12 03:17:43;;;;;;;24.83;14.50;;;16.60;99.90;;;;;;5067041;28;20188;-84
2023/09/12 03:20:09;;;;;;;25.87;13.63;;;16.50;99.90;;;;;;5064394;28;20212;-82
2023/09/12 03:22:38;;;;;;;17.57;11.73;;;16.50;99.90;;;;;;5065981;28;20240;-86
2023/09/12 03:25:05;;;;;;;26.10;12.97;;;16.60;99.90;;;;;;5058092;28;20435;-81
2023/09/12 03:27:32;;;;;;;16.30;12.67;;;16.60;99.90;;;;;;5065238;28;20474;-80
2023/09/12 03:29:57;;;;;;;15.37;10.03;;;16.60;99.90;;;;;;5059951;28;20458;-82
2023/09/12 03:32:23;;;;;;;14.10;8.17;;;16.70;99.90;;;;;;5065551;28;20506;-82
2023/09/12 03:34:48;;;;;;;9.50;6.60;;;16.70;99.90;;;;;;5060946;28;20233;-79
2023/09/12 03:37:14;;;;;;;8.57;5.27;;;16.70;99.90;;;;;;5059937;28;20195;-83
2023/09/12 03:39:40;;;;;;;5.57;4.07;;;16.70;99.90;;;;;;5063572;28;20288;-78
2023/09/12 03:42:06;;;;;;;7.57;4.63;;;16.50;99.90;;;;;;5061955;28;20207;-81
2023/09/12 03:44:31;;;;;;;6.00;3.73;;;16.40;99.90;;;;;;5065413;28;20438;-83
2023/09/12 03:46:58;;;;;;;4.20;3.30;;;16.20;99.90;;;;;;5065623;28;20188;-80
2023/09/12 03:49:23;;;;;;;4.33;2.70;;;16.20;99.90;;;;;;5062155;28;20550;-80
2023/09/12 03:51:49;;;;;;;4.97;4.27;;;16.20;99.90;;;;;;5055554;28;20453;-80
2023/09/12 03:54:14;;;;;;;9.83;3.73;;;16.20;99.90;;;;;;5063293;28;20187;-85
2023/09/12 03:56:40;;;;;;;5.27;1.80;;;16.20;99.90;;;;;;5056663;28;20261;-83
2023/09/12 03:59:06;;;;;;;3.13;2.17;;;16.30;99.90;;;;;;5060163;28;20978;-79
2023/09/12 04:01:32;;;;;;;2.40;1.37;;;16.40;99.90;;;;;;5062902;28;20215;-81
2023/09/12 04:03:58;;;;;;;2.33;2.20;;;16.30;99.90;;;;;;5062593;28;20442;-83
2023/09/12 04:06:23;;;;;;;2.30;2.10;;;16.30;99.90;;;;;;5058262;28;20200;-81
2023/09/12 04:08:49;;;;;;;2.00;1.50;;;16.40;99.90;;;;;;5077036;28;20196;-82
2023/09/12 04:11:14;;;;;;;1.90;1.70;;;16.50;99.90;;;;;;5064330;28;20231;-79
2023/09/12 04:13:40;;;;;;;0.63;0.63;;;16.60;99.90;;;;;;5070667;28;20227;-81
2023/09/12 04:16:05;;;;;;;0.73;0.70;;;16.70;99.90;;;;;;5061195;28;20759;-84
2023/09/12 04:18:31;;;;;;;3.80;0.90;;;16.80;99.90;;;;;;5063175;28;20481;-81
2023/09/12 04:20:57;;;;;;;2.20;0.40;;;17.00;99.90;;;;;;5069322;28;20204;-82
2023/09/12 04:23:24;;;;;;;1.17;1.13;;;17.10;99.90;;;;;;5059751;28;21072;-83
2023/09/12 04:25:49;;;;;;;0.70;0.70;;;17.10;99.90;;;;;;5060562;28;20430;-83
2023/09/12 04:28:15;;;;;;;0.77;0.67;;;17.00;99.90;;;;;;5063026;28;20517;-77
2023/09/12 04:30:41;;;;;;;0.80;0.40;;;16.90;99.90;;;;;;5056630;28;20204;-80
2023/09/12 04:33:06;;;;;;;0.70;0.70;;;16.80;99.90;;;;;;5053387;28;20215;-85
2023/09/12 04:35:35;;;;;;;0.70;0.50;;;16.80;99.90;;;;;;5053869;28;20434;-83
2023/09/12 04:38:01;;;;;;;0.50;0.40;;;16.80;99.90;;;;;;5052585;28;20218;-78
2023/09/12 04:40:26;;;;;;;1.23;0.50;;;17.00;99.90;;;;;;5050398;28;20822;-81
2023/09/12 04:42:53;;;;;;;0.50;0.40;;;17.00;99.90;;;;;;5062405;28;20434;-81
2023/09/12 04:45:18;;;;;;;1.03;0.80;;;17.10;99.90;;;;;;5055720;28;20200;-79
2023/09/12 04:47:44;;;;;;;0.40;0.40;;;17.10;99.90;;;;;;5055642;28;20859;-84
2023/09/12 04:50:11;;;;;;;0.80;0.80;;;17.10;99.90;;;;;;5056620;28;20235;-82
2023/09/12 04:52:37;;;;;;;1.50;1.40;;;17.10;99.90;;;;;;5059271;28;20191;-80
2023/09/12 04:55:03;;;;;;;2.30;1.20;;;16.90;99.90;;;;;;5050773;28;20447;-84
2023/09/12 04:57:30;;;;;;;1.73;1.33;;;16.90;99.90;;;;;;5050037;28;21189;-80
2023/09/12 04:59:57;;;;;;;1.33;1.07;;;17.00;99.90;;;;;;5052467;28;20477;-81
2023/09/12 05:02:22;;;;;;;4.47;2.10;;;17.00;99.90;;;;;;5050233;28;20510;-83
2023/09/12 05:04:48;;;;;;;0.80;0.80;;;17.00;99.90;;;;;;5050367;28;20470;-83
2023/09/12 05:07:14;;;;;;;2.07;0.50;;;17.00;99.90;;;;;;5057954;28;20255;-78
2023/09/12 05:09:39;;;;;;;0.70;0.63;;;18.40;99.90;;;;;;5056632;28;20204;-82
2023/09/12 05:12:05;;;;;;;0.50;0.40;;;17.20;99.90;;;;;;5051439;28;20276;-82
2023/09/12 05:14:30;;;;;;;0.50;0.40;;;17.40;99.90;;;;;;5064860;28;20777;-83
2023/09/12 05:16:56;;;;;;;0.60;0.57;;;17.60;99.90;;;;;;5062282;28;20818;-83
2023/09/12 05:19:22;;;;;;;0.93;0.50;;;17.80;99.90;;;;;;5078692;28;20227;-79
2023/09/12 05:21:48;;;;;;;1.07;0.50;;;17.80;99.90;;;;;;5067831;28;20215;-82
2023/09/12 05:24:14;;;;;;;0.57;0.57;;;18.00;99.90;;;;;;5063704;28;20494;-84
2023/09/12 05:26:39;;;;;;;0.50;0.50;;;18.20;99.90;;;;;;5078402;28;20196;-77
2023/09/12 05:29:05;;;;;;;0.40;0.30;;;18.80;99.90;;;;;;5075587;28;20878;-83
2023/09/12 05:31:31;;;;;;;0.50;0.30;;;19.40;99.90;;;;;;5067008;28;20279;-86
2023/09/12 05:33:57;;;;;;;0.57;0.30;;;19.90;99.90;;;;;;5054016;28;20447;-84
2023/09/12 05:36:22;;;;;;;0.50;0.40;;;20.00;99.90;;;;;;5061829;28;20943;-80
2023/09/12 05:38:48;;;;;;;0.67;0.43;;;20.10;99.90;;;;;;5053552;28;20188;-83
2023/09/12 05:41:13;;;;;;;0.40;0.37;;;20.10;99.90;;;;;;5062444;28;20220;-78
2023/09/12 05:43:39;;;;;;;0.40;0.27;;;20.30;99.90;;;;;;5056551;28;20219;-82
2023/09/12 05:46:04;;;;;;;3.17;0.43;;;20.10;99.90;;;;;;5056027;28;20196;-80
2023/09/12 05:48:30;;;;;;;0.40;0.30;;;20.00;99.90;;;;;;5061062;28;20189;-80
2023/09/12 05:50:55;;;;;;;0.40;0.40;;;20.10;99.90;;;;;;5053824;28;20212;-80
2023/09/12 05:53:21;;;;;;;0.40;0.20;;;20.40;99.90;;;;;;5062701;28;20214;-81
2023/09/12 05:55:47;;;;;;;0.77;0.53;;;20.00;99.90;;;;;;5059116;28;20195;-80
2023/09/12 05:58:12;;;;;;;0.63;0.43;;;19.80;99.90;;;;;;5057789;28;20184;-82
2023/09/12 06:00:38;;;;;;;0.50;0.30;;;19.60;99.90;;;;;;5051841;28;20219;-83
2023/09/12 06:03:04;;;;;;;0.40;0.20;;;19.40;99.90;;;;;;5056155;28;20653;-81
2023/09/12 06:05:29;;;;;;;1.03;0.53;;;19.40;99.90;;;;;;5051418;28;20503;-83
2023/09/12 06:07:55;;;;;;;0.60;0.30;;;21.60;99.90;;;;;;5051259;28;20554;-80
2023/09/12 06:10:21;;;;;;;0.60;0.40;;;21.60;99.90;;;;;;5049284;28;20818;-83
2023/09/12 06:12:47;;;;;;;0.83;0.67;;;22.80;99.90;;;;;;5050550;28;20230;-81
2023/09/12 06:15:12;;;;;;;0.87;0.60;;;23.40;99.90;;;;;;5057202;28;20443;-82
2023/09/12 06:17:38;;;;;;;0.70;0.40;;;23.70;99.90;;;;;;5064891;28;20231;-82
2023/09/12 06:20:06;;;;;;;0.40;0.30;;;23.40;99.90;;;;;;5065158;28;20205;-82
2023/09/12 06:22:31;;;;;;;0.40;0.40;;;22.70;99.90;;;;;;5069025;28;20262;-78
2023/09/12 06:24:58;;;;;;;0.97;0.87;;;22.40;99.90;;;;;;5072588;28;20458;-79
2023/09/12 06:27:23;;;;;;;0.40;0.30;;;21.80;99.90;;;;;;5068489;28;20493;-79
2023/09/12 06:29:49;;;;;;;0.80;0.80;;;21.50;99.90;;;;;;5061089;28;20215;-83
2023/09/12 06:32:15;;;;;;;0.40;0.30;;;21.60;99.90;;;;;;5067146;28;20271;-81
2023/09/12 06:34:41;;;;;;;0.50;0.30;;;21.60;99.90;;;;;;5065053;28;21194;-82
2023/09/12 06:37:07;;;;;;;0.80;0.70;;;21.60;99.90;;;;;;5076463;28;20442;-84
2023/09/12 06:39:33;;;;;;;1.67;1.27;;;21.70;99.90;;;;;;5057545;28;20451;-82
2023/09/12 06:41:58;;;;;;;0.40;0.30;;;21.90;99.90;;;;;;5062991;28;20299;-81
2023/09/12 06:44:24;;;;;;;1.40;0.53;;;22.20;99.90;;;;;;5059554;28;20247;-78
2023/09/12 06:46:49;;;;;;;0.63;0.50;;;22.50;99.90;;;;;;5057419;28;20196;-84
2023/09/12 06:49:15;;;;;;;0.50;0.40;;;22.70;99.90;;;;;;5048532;28;20210;-82
2023/09/12 06:51:40;;;;;;;0.50;0.30;;;22.70;99.90;;;;;;5049895;28;20597;-80
2023/09/12 06:54:06;;;;;;;1.03;0.50;;;22.80;99.90;;;;;;5051632;28;20226;-83
2023/09/12 06:56:32;;;;;;;0.67;0.67;;;22.80;99.90;;;;;;5055599;28;20196;-80
2023/09/12 06:58:59;;;;;;;0.47;0.40;;;22.80;99.90;;;;;;5058239;28;20219;-84
2023/09/12 07:01:24;;;;;;;3.03;0.97;;;22.40;99.90;;;;;;5054898;28;20204;-81
2023/09/12 07:03:53;;;;;;;1.37;1.23;;;22.60;99.90;;;;;;5052703;28;20819;-80
2023/09/12 07:06:19;;;;;;;0.50;0.40;;;22.60;99.90;;;;;;5044370;28;20201;-80
2023/09/12 07:08:44;;;;;;;0.60;0.50;;;22.50;99.90;;;;;;5058612;28;20466;-81
2023/09/12 07:11:10;;;;;;;1.80;0.70;;;22.60;99.90;;;;;;5054386;28;20285;-83
2023/09/12 07:13:35;;;;;;;0.80;0.80;;;22.90;99.90;;;;;;5058054;28;20252;-84
2023/09/12 07:16:03;;;;;;;0.50;0.40;;;23.20;99.90;;;;;;5060136;28;20227;-80
2023/09/12 07:18:32;;;;;;;0.70;0.40;;;23.30;99.90;;;;;;5061797;28;20251;-77
2023/09/12 07:21:02;;;;;;;1.17;0.60;;;23.40;99.90;;;;;;5058907;28;20491;-84
2023/09/12 07:23:28;;;;;;;0.70;0.70;;;23.60;99.90;;;;;;5056245;28;20503;-84
2023/09/12 07:25:57;;;;;;;1.80;0.60;;;24.00;99.90;;;;;;5060163;28;20526;-83
2023/09/12 07:28:23;;;;;;;0.40;0.20;;;24.30;99.90;;;;;;5069740;28;20454;-87
2023/09/12 07:30:49;;;;;;;1.13;0.70;;;26.10;99.90;;;;;;5061915;28;20465;-81
2023/09/12 07:33:14;;;;;;;0.40;0.30;;;28.60;99.90;;;;;;5062553;28;20452;-84
2023/09/12 07:35:40;;;;;;;0.40;0.30;;;30.00;99.90;;;;;;5062820;28;20258;-81
2023/09/12 07:38:05;;;;;;;0.70;0.63;;;32.60;99.90;;;;;;5061828;28;20270;-84
2023/09/12 07:40:31;;;;;;;1.10;0.50;;;34.00;99.90;;;;;;5061174;28;20352;-83
2023/09/12 07:42:56;;;;;;;0.60;0.50;;;35.20;97.30;;;;;;5068380;28;20294;-82
2023/09/12 07:45:22;;;;;;;0.50;0.40;;;35.30;93.90;;;;;;5072180;28;20193;-80
2023/09/12 07:47:48;;;;;;;1.87;1.63;;;34.60;92.80;;;;;;5075101;28;20220;-85
2023/09/12 07:50:14;;;;;;;1.83;1.43;;;34.50;90.90;;;;;;5062977;28;20214;-85
2023/09/12 07:52:39;;;;;;;1.07;1.03;;;34.70;90.30;;;;;;5061665;28;20488;-84
2023/09/12 07:55:06;;;;;;;0.70;0.70;;;33.00;91.00;;;;;;5056978;28;21118;-82
2023/09/12 07:57:33;;;;;;;0.50;0.43;;;32.40;92.00;;;;;;5064479;28;20189;-85
2023/09/12 07:59:58;;;;;;;0.60;0.50;;;32.30;92.90;;;;;;5059708;28;21512;-86
2023/09/12 08:02:24;;;;;;;0.50;0.50;;;32.40;93.80;;;;;;5057420;28;20478;-84
2023/09/12 08:04:51;;;;;;;0.90;0.70;;;32.40;95.30;;;;;;5059348;28;20603;-84
2023/09/12 08:07:17;;;;;;;0.60;0.60;;;32.70;94.30;;;;;;5058559;28;20743;-84
2023/09/12 08:09:54;;;;;;;0.50;0.43;;;32.30;93.60;;;;;;5075844;28;20466;-83
2023/09/12 08:12:22;;;;;;;1.53;0.80;;;32.70;93.50;;;;;;5062408;28;20897;-85
2023/09/12 08:14:47;;;;;;;0.50;0.40;;;33.10;93.40;;;;;;5065348;28;20450;-83
2023/09/12 08:17:14;;;;;;;0.60;0.60;;;34.40;91.70;;;;;;5065721;28;20451;-83
2023/09/12 08:19:39;;;;;;;1.00;1.00;;;35.40;89.50;;;;;;5061899;28;20281;-83
2023/09/12 08:22:07;;;;;;;0.90;0.90;;;36.40;86.40;;;;;;5067737;28;20471;-86
2023/09/12 08:24:33;;;;;;;1.03;1.03;;;36.60;82.60;;;;;;5064587;28;20180;-81
2023/09/12 08:26:59;;;;;;;1.30;1.30;;;36.60;80.80;;;;;;5061932;28;20448;-84
2023/09/12 08:29:24;;;;;;;2.30;2.20;;;36.80;78.20;;;;;;5069866;28;20631;-84
2023/09/12 08:31:50;;;;;;;2.10;2.00;;;37.40;78.10;;;;;;5061381;28;20263;-81
2023/09/12 08:34:15;;;;;;;2.00;1.90;;;38.00;74.90;;;;;;5062268;28;20196;-81
2023/09/12 08:36:41;;;;;;;2.27;2.17;;;39.00;72.10;;;;;;5059422;28;20279;-86
2023/09/12 08:39:11;;;;;;;3.23;3.13;;;39.40;70.20;;;;;;5065430;28;20670;-86
2023/09/12 08:41:36;;;;;;;3.10;3.00;;;39.80;67.80;;;;;;5054537;28;20216;-84
2023/09/12 08:44:05;;;;;;;3.93;3.73;;;39.90;63.30;;;;;;5051489;28;20813;-82
2023/09/12 08:46:31;;;;;;;4.10;4.00;;;39.60;64.80;;;;;;5053499;28;20192;-83
2023/09/12 08:48:58;;;;;;;3.30;3.20;;;40.00;62.60;;;;;;5046799;28;20439;-82
2023/09/12 08:51:23;;;;;;;4.50;4.30;;;39.50;62.10;;;;;;5053408;28;20694;-81
2023/09/12 08:53:52;;;;;;;3.77;3.67;;;38.30;64.00;;;;;;5052314;28;20449;-83
2023/09/12 08:56:18;;;;;;;3.90;3.70;;;37.80;64.70;;;;;;5070498;28;20203;-86
2023/09/12 08:58:45;;;;;;;3.40;3.30;;;37.50;64.40;;;;;;5058582;28;20442;-85
2023/09/12 09:01:13;;;;;;;3.80;3.70;;;36.80;69.20;;;;;;5041876;28;20470;-84
2023/09/12 09:03:42;;;;;;;3.60;3.50;;;36.80;68.50;;;;;;5045928;28;20445;-84
2023/09/12 09:06:11;;;;;;;3.90;3.80;;;37.70;68.10;;;;;;5068946;28;20458;-81
2023/09/12 09:08:39;;;;;;;3.90;3.80;;;37.40;65.30;;;;;;5059968;28;21013;-82
2023/09/12 09:11:06;;;;;;;4.23;4.13;;;36.40;67.10;;;;;;5047029;28;20462;-82
2023/09/12 09:13:34;;;;;;;4.13;4.03;;;36.30;67.70;;;;;;5051153;28;21055;-85
2023/09/12 09:16:17;;;;;;;4.37;4.27;;;36.60;67.80;;;;;;5047743;28;21038;-85
2023/09/12 09:18:55;;;;;;;4.40;4.27;;;36.20;66.70;;;;;;5052839;28;20495;-85
2023/09/12 09:21:25;;;;;;;4.90;4.70;;;35.90;70.40;;;;;;5045837;28;20553;-86
2023/09/12 09:23:56;;;;;;;3.10;3.00;;;35.30;69.30;;;;;;5052838;28;20441;-85
2023/09/12 09:26:22;;;;;;;3.33;3.23;;;36.00;69.60;;;;;;5052003;28;20973;-82
2023/09/12 09:29:10;;;;;;;3.87;3.77;;;36.30;69.60;;;;;;5052009;28;20495;-85
2023/09/12 09:31:40;;;;;;;3.93;3.83;;;35.70;69.60;;;;;;5045385;28;20438;-83
2023/09/12 09:34:11;;;;;;;3.73;3.63;;;36.30;70.50;;;;;;5048241;28;20515;-82
2023/09/12 09:36:40;;;;;;;4.30;4.20;;;37.40;67.50;;;;;;5041216;28;20447;-84
2023/09/12 09:39:05;;;;;;;5.50;5.30;;;38.20;64.40;;;;;;5045383;28;20445;-86
2023/09/12 09:41:32;;;;;;;5.07;4.87;;;38.30;62.00;;;;;;5046102;28;20749;-82
2023/09/12 09:43:59;;;;;;;4.77;4.67;;;37.50;63.00;;;;;;5050033;28;20215;-85
2023/09/12 09:46:25;;;;;;;3.97;3.87;;;36.30;65.80;;;;;;5052299;28;20718;-82
2023/09/12 09:48:51;;;;;;;3.93;3.83;;;36.50;66.70;;;;;;5056933;28;20449;-84
2023/09/12 09:51:18;;;;;;;3.70;3.60;;;36.70;65.30;;;;;;5054211;28;20257;-84
2023/09/12 09:53:43;;;;;;;4.40;4.30;;;37.40;64.90;;;;;;5066486;28;20442;-80
2023/09/12 09:56:14;;;;;;;4.30;4.10;;;38.20;63.40;;;;;;5078106;28;20485;-84
2023/09/12 09:58:50;;;;;;;4.77;4.57;;;38.60;60.70;;;;;;5053676;28;20200;-84
2023/09/12 10:01:21;;;;;;;4.87;4.77;;;38.40;61.30;;;;;;5049236;28;20959;-83
2023/09/12 10:03:50;;;;;;;4.50;4.40;;;38.60;59.10;;;;;;5042715;28;20442;-86
2023/09/12 10:06:17;;;;;;;5.00;4.80;;;38.40;59.60;;;;;;5041725;28;20457;-83
2023/09/12 10:08:46;;;;;;;5.27;5.00;;;37.30;60.70;;;;;;5054610;28;20448;-85
2023/09/12 10:11:14;;;;;;;4.23;4.13;;;35.90;63.30;;;;;;5060014;28;20493;-84
2023/09/12 10:13:49;;;;;;;2.90;2.80;;;34.60;66.30;;;;;;5048212;28;20451;-82
2023/09/12 10:16:16;;;;;;;3.13;3.03;;;33.40;71.50;;;;;;5049566;28;20465;-81
2023/09/12 10:18:55;;;;;;;2.20;2.10;;;32.90;73.60;;;;;;5057071;28;20447;-84
2023/09/12 10:21:30;;;;;;;1.53;1.43;;;32.60;75.50;;;;;;5052837;28;20476;-83
2023/09/12 10:23:58;;;;;;;1.83;1.77;;;32.10;81.00;;;;;;5058670;28;20466;-81
2023/09/12 10:26:24;;;;;;;1.50;1.50;;;31.60;79.70;;;;;;5052842;28;20529;-81
2023/09/12 10:28:51;;;;;;;1.50;1.47;;;31.40;81.80;;;;;;5047998;28;21050;-85
2023/09/12 10:31:17;;;;;;;1.90;1.50;;;31.30;81.40;;;;;;5050070;28;20481;-84
2023/09/12 10:33:44;;;;;;;1.07;1.07;;;31.10;82.60;;;;;;5051570;28;20447;-83
2023/09/12 10:36:11;;;;;;;2.37;2.17;;;31.20;81.70;;;;;;5049483;28;20467;-82
2023/09/12 10:38:43;;;;;;;1.30;1.20;;;31.20;81.40;;;;;;5048871;28;20511;-82
2023/09/12 10:41:11;;;;;;;1.40;1.40;;;31.20;80.30;;;;;;5058274;28;20523;-84
2023/09/12 10:43:38;;;;;;;1.20;1.20;;;31.50;80.80;;;;;;5047408;28;20448;-82
2023/09/12 10:46:04;;;;;;;1.20;1.20;;;31.30;79.40;;;;;;5039836;28;20495;-84
2023/09/12 10:48:31;;;;;;;1.47;1.40;;;30.70;82.70;;;;;;5041889;28;21500;-79
2023/09/12 10:51:03;;;;;;;1.10;1.07;;;30.40;89.50;;;;;;5049279;28;20306;-85
2023/09/12 10:53:30;;;;;;;0.80;0.80;;;30.60;86.60;;;;;;5051554;28;20447;-84
2023/09/12 10:56:17;;;;;;;1.20;1.07;;;30.60;84.20;;;;;;5054129;28;20445;-80
2023/09/12 10:59:03;;;;;;;0.73;0.73;;;30.60;83.90;;;;;;5044658;28;20442;-81
2023/09/12 11:01:33;;;;;;;0.70;0.70;;;30.90;84.90;;;;;;5056896;28;20551;-83
2023/09/12 11:04:20;;;;;;;1.03;0.83;;;31.00;86.20;;;;;;5062624;28;20446;-80
2023/09/12 11:06:47;;;;;;;0.70;0.70;;;31.40;85.40;;;;;;5066255;28;21053;-85
2023/09/12 11:09:26;;;;;;;0.90;0.90;;;31.10;84.80;;;;;;5054434;28;20464;-84
2023/09/12 11:12:02;;;;;;;1.27;1.20;;;30.90;84.80;;;;;;5054220;28;20540;-80
2023/09/12 11:14:28;;;;;;;0.90;0.83;;;30.40;83.30;;;;;;5073715;28;20455;-82
2023/09/12 11:17:06;;;;;;;1.00;1.00;;;30.60;84.40;;;;;;5060758;28;20452;-83
2023/09/12 11:19:44;;;;;;;0.90;0.90;;;31.10;84.10;;;;;;5075931;28;20215;-81
2023/09/12 11:22:28;;;;;;;1.50;1.40;;;31.10;83.80;;;;;;5047750;28;20496;-83
2023/09/12 11:24:55;;;;;;;1.57;1.47;;;30.60;86.40;;;;;;5056206;28;20447;-81
2023/09/12 11:27:23;;;;;;;1.43;0.90;;;30.90;87.10;;;;;;5051682;28;20487;-85
2023/09/12 11:29:49;;;;;;;0.70;0.70;;;30.90;82.60;;;;;;5053290;28;20467;-84
2023/09/12 11:32:36;;;;;;;0.90;0.90;;;30.80;84.80;;;;;;5053956;28;21105;-84
2023/09/12 11:35:06;;;;;;;0.70;0.70;;;30.40;84.80;;;;;;5064408;28;20450;-82
2023/09/12 11:37:33;;;;;;;1.20;1.10;;;30.60;87.40;;;;;;5060890;28;20435;-82
2023/09/12 11:39:59;;;;;;;0.80;0.80;;;30.70;85.50;;;;;;5056082;28;20460;-83
2023/09/12 11:42:28;;;;;;;0.80;0.80;;;30.70;81.30;;;;;;5061475;28;20474;-83
2023/09/12 11:44:53;;;;;;;0.83;0.83;;;30.80;82.00;;;;;;5067068;28;20448;-81
2023/09/12 11:47:20;;;;;;;0.70;0.70;;;30.80;83.20;;;;;;5058542;28;20513;-82
2023/09/12 11:49:46;;;;;;;0.70;0.70;;;30.70;80.40;;;;;;5064070;28;20239;-83
2023/09/12 11:52:13;;;;;;;1.07;1.07;;;30.70;80.60;;;;;;5049238;28;21931;-83
2023/09/12 11:54:43;;;;;;;0.70;0.70;;;30.80;78.80;;;;;;5051687;28;23732;-84
2023/09/12 11:57:14;;;;;;;0.80;0.80;;;31.00;78.50;;;;;;5040106;28;20451;-82
2023/09/12 11:59:44;;;;;;;0.90;0.90;;;30.80;78.30;;;;;;5038823;28;20480;-85
2023/09/12 12:02:14;;;;;;;0.80;0.80;;;30.20;76.20;;;;;;5043566;28;20472;-83
2023/09/12 12:04:40;;;;;;;1.37;1.27;;;29.80;76.00;;;;;;5032194;28;20440;-83
2023/09/12 12:07:07;;;;;;;1.37;1.30;;;29.50;78.70;;;;;;5038398;28;20436;-81
2023/09/12 12:09:34;;;;;;;0.60;0.60;;;29.10;79.60;;;;;;5046576;28;22298;-83
2023/09/12 12:12:11;;;;;;;0.90;0.90;;;29.00;80.30;;;;;;5043668;28;21093;-83
2023/09/12 12:14:36;;;;;;;0.70;0.60;;;28.70;83.70;;;;;;5045760;28;20460;-83
2023/09/12 12:17:28;;;;;;;0.70;0.70;;;28.60;84.10;;;;;;5061617;28;20431;-77
2023/09/12 12:19:55;;;;;;;0.50;0.50;;;28.70;84.80;;;;;;5052421;28;20230;-78
2023/09/12 12:22:21;;;;;;;0.63;0.60;;;28.70;85.00;;;;;;5049779;28;20952;-81
2023/09/12 12:24:50;;;;;;;1.13;0.70;;;28.60;84.20;;;;;;5060560;28;20467;-81
2023/09/12 12:27:15;;;;;;;2.00;0.57;;;28.60;85.80;;;;;;5066976;28;20504;-83
2023/09/12 12:29:43;;;;;;;0.50;0.40;;;28.90;90.50;;;;;;5042162;28;20784;-83
2023/09/12 12:32:10;;;;;;;1.53;1.13;;;29.10;90.70;;;;;;5055825;28;20450;-84
2023/09/12 12:34:36;;;;;;;0.70;0.70;;;29.70;90.60;;;;;;5047145;28;20472;-78
2023/09/12 12:37:03;;;;;;;1.10;0.77;;;30.70;91.00;;;;;;5053662;28;20440;-81
2023/09/12 12:39:28;;;;;;;0.70;0.70;;;31.30;81.10;;;;;;5040221;28;20449;-81
2023/09/12 12:41:54;;;;;;;1.00;1.00;;;31.70;79.30;;;;;;5050626;28;20896;-84